Time;durP1;ratioP1;P1;durP2;ratioP2;P2;SDS_P1;SDS_P2;PMS_P1;PMS_P2;Temp;Humidity;BMP_temperature;BMP_pressure;BME280_temperature;BME280_humidity;BME280_pressure;Samples;Min_cycle;Max_cycle;Signal;HPM_P1;HPM_P2
2022/12/15 00:40:41;;;;;;;27.87;14.80;;;8.90;46.10;;;;;;5052191;28;20454;-84
2022/12/15 00:43:10;;;;;;;27.40;14.70;;;8.90;46.00;;;;;;5050703;28;20447;-78
2022/12/15 00:48:27;;;;;;;27.93;13.30;;;8.90;46.10;;;;;;5045125;28;20504;-81
2022/12/15 00:50:55;;;;;;;26.47;14.10;;;8.90;46.10;;;;;;5044262;28;20465;-81
2022/12/15 01:21:02;;;;;;;23.47;13.10;;;8.90;46.40;;;;;;5054479;28;20430;-84
2022/12/15 01:23:31;;;;;;;25.87;13.90;;;8.90;46.40;;;;;;5059899;28;20445;-84
2022/12/15 01:25:59;;;;;;;31.07;13.73;;;8.80;46.30;;;;;;5042281;28;20432;-84
2022/12/15 01:28:27;;;;;;;20.20;12.47;;;8.80;46.30;;;;;;5050480;28;20473;-84
2022/12/15 01:30:55;;;;;;;26.83;13.80;;;8.90;46.30;;;;;;5062633;28;20447;-84
2022/12/15 01:33:23;;;;;;;25.10;13.43;;;8.90;46.40;;;;;;5061490;28;20466;-87
2022/12/15 01:35:58;;;;;;;22.23;13.43;;;8.90;46.30;;;;;;5061402;28;20447;-84
2022/12/15 01:38:26;;;;;;;23.13;13.20;;;8.90;46.40;;;;;;5063630;28;20470;-84
2022/12/15 01:40:56;;;;;;;22.73;12.83;;;8.90;46.40;;;;;;5064673;28;20442;-86
2022/12/15 01:43:25;;;;;;;25.00;13.10;;;8.80;46.30;;;;;;5067528;28;20438;-86
2022/12/15 01:45:56;;;;;;;24.83;13.30;;;8.80;46.30;;;;;;5068985;28;20454;-85
2022/12/15 01:48:27;;;;;;;29.20;15.83;;;8.80;46.40;;;;;;5059010;28;20471;-84
2022/12/15 01:51:10;;;;;;;38.90;20.43;;;8.80;46.40;;;;;;5049173;28;20447;-81
2022/12/15 01:53:39;;;;;;;40.67;20.43;;;8.80;46.50;;;;;;5048528;28;20458;-82
2022/12/15 01:56:09;;;;;;;42.10;21.00;;;8.80;46.40;;;;;;5045510;28;20463;-81
2022/12/15 01:58:38;;;;;;;42.40;22.90;;;8.80;46.40;;;;;;5042043;28;20476;-82
2022/12/15 02:01:06;;;;;;;44.40;23.23;;;8.70;46.50;;;;;;5047581;28;20930;-83
2022/12/15 02:03:34;;;;;;;45.60;23.30;;;8.80;46.50;;;;;;5052419;28;20445;-83
2022/12/15 02:06:03;;;;;;;50.53;24.67;;;8.70;46.40;;;;;;5052546;28;20446;-83
2022/12/15 02:08:31;;;;;;;47.63;23.40;;;8.70;46.40;;;;;;5048610;28;20481;-83
2022/12/15 02:11:24;;;;;;;46.17;23.67;;;8.70;46.40;;;;;;5049383;28;20465;-83
2022/12/15 02:13:56;;;;;;;50.43;25.10;;;8.70;46.30;;;;;;5045590;28;20457;-82
2022/12/15 02:16:26;;;;;;;47.50;24.80;;;8.70;46.40;;;;;;5064897;28;20437;-83
2022/12/15 02:18:58;;;;;;;46.30;23.77;;;8.70;46.40;;;;;;5049430;28;20501;-82
2022/12/15 02:21:29;;;;;;;45.53;22.90;;;8.70;46.30;;;;;;5050656;28;20458;-82
2022/12/15 02:24:14;;;;;;;45.07;23.70;;;8.70;46.40;;;;;;5048815;28;20465;-83
2022/12/15 02:27:04;;;;;;;44.23;22.50;;;8.70;46.40;;;;;;5044309;28;20477;-81
2022/12/15 02:29:41;;;;;;;40.83;20.97;;;8.70;46.40;;;;;;5044425;28;20478;-82
2022/12/15 02:32:12;;;;;;;42.87;21.50;;;8.70;46.40;;;;;;5048579;28;20446;-82
2022/12/15 02:34:42;;;;;;;44.80;22.63;;;8.70;46.50;;;;;;5049388;28;20447;-85
2022/12/15 02:37:12;;;;;;;41.23;21.43;;;8.60;46.40;;;;;;5045420;28;20438;-82
2022/12/15 02:39:40;;;;;;;41.50;21.70;;;8.60;46.40;;;;;;5049046;28;20450;-81
2022/12/15 02:42:09;;;;;;;38.73;20.07;;;8.70;46.50;;;;;;5047721;28;20458;-82
2022/12/15 02:44:38;;;;;;;37.50;19.27;;;8.60;46.40;;;;;;5045785;28;20450;-83
2022/12/15 02:47:25;;;;;;;40.20;20.57;;;8.60;46.50;;;;;;5047526;28;20477;-82
2022/12/15 02:50:08;;;;;;;38.43;19.90;;;8.60;46.30;;;;;;5050076;28;20461;-85
2022/12/15 02:52:42;;;;;;;33.97;18.53;;;8.60;46.50;;;;;;5046837;28;20431;-83
2022/12/15 02:55:13;;;;;;;34.90;18.13;;;8.60;46.40;;;;;;5057707;28;20458;-82
2022/12/15 02:57:44;;;;;;;37.07;18.70;;;8.60;46.50;;;;;;5049639;28;20512;-82
2022/12/15 03:00:12;;;;;;;39.57;17.97;;;8.50;46.30;;;;;;5053551;28;20457;-83
2022/12/15 03:02:44;;;;;;;35.53;18.30;;;8.50;46.40;;;;;;5050074;28;20457;-81
2022/12/15 03:05:12;;;;;;;35.50;17.87;;;8.50;46.40;;;;;;5049358;28;20456;-83
2022/12/15 03:07:41;;;;;;;34.23;18.90;;;8.50;46.60;;;;;;5054054;28;20474;-82
2022/12/15 03:10:10;;;;;;;34.53;18.10;;;8.50;46.50;;;;;;5053661;28;20460;-83
2022/12/15 03:12:38;;;;;;;36.33;18.33;;;8.50;46.50;;;;;;5050554;28;20458;-83
2022/12/15 03:15:06;;;;;;;33.83;17.63;;;8.50;46.50;;;;;;5055240;28;20478;-83
2022/12/15 03:17:34;;;;;;;30.00;17.00;;;8.50;46.30;;;;;;5052338;28;20462;-83
2022/12/15 03:20:04;;;;;;;31.17;16.50;;;8.50;46.50;;;;;;5054151;28;20461;-83
2022/12/15 03:22:32;;;;;;;31.93;16.50;;;8.50;46.50;;;;;;5054710;28;20509;-83
2022/12/15 03:25:00;;;;;;;27.73;15.23;;;8.50;46.60;;;;;;5053569;28;20450;-81
2022/12/15 03:27:28;;;;;;;30.43;16.30;;;8.50;46.40;;;;;;5056071;28;20474;-81
2022/12/15 03:29:56;;;;;;;34.10;17.27;;;8.50;46.50;;;;;;5052086;28;20450;-82
2022/12/15 03:32:24;;;;;;;29.70;15.93;;;8.50;46.50;;;;;;5055056;28;20458;-82
2022/12/15 03:34:52;;;;;;;31.83;16.00;;;8.40;46.50;;;;;;5053023;28;20459;-81
2022/12/15 03:37:21;;;;;;;26.63;14.70;;;8.50;46.50;;;;;;5053150;28;20443;-81
2022/12/15 03:39:49;;;;;;;28.93;14.97;;;8.50;46.50;;;;;;5053141;28;20455;-81
2022/12/15 03:42:47;;;;;;;29.20;15.60;;;8.50;46.60;;;;;;5047854;28;20454;-81
2022/12/15 03:45:06;;;;;;;28.37;15.90;;;8.50;46.50;;;;;;5054344;28;20520;-82
2022/12/15 03:47:34;;;;;;;24.77;14.27;;;8.50;46.60;;;;;;5054779;28;20474;-82
2022/12/15 03:50:03;;;;;;;26.43;14.00;;;8.40;46.50;;;;;;5051678;28;20458;-81
2022/12/15 03:52:32;;;;;;;27.33;15.17;;;8.40;46.60;;;;;;5054351;28;20459;-81
2022/12/15 03:55:00;;;;;;;26.87;14.07;;;8.40;46.50;;;;;;5052975;28;20458;-82
2022/12/15 03:57:28;;;;;;;26.00;13.90;;;8.40;46.60;;;;;;5052168;28;20462;-82
2022/12/15 03:59:56;;;;;;;27.30;14.23;;;8.40;46.60;;;;;;5050819;28;20463;-83
2022/12/15 04:02:24;;;;;;;26.30;14.47;;;8.40;46.60;;;;;;5054730;28;20458;-81
2022/12/15 04:04:52;;;;;;;27.77;13.70;;;8.40;46.60;;;;;;5053234;28;20451;-81
2022/12/15 04:07:20;;;;;;;30.33;14.10;;;8.40;46.80;;;;;;5054955;28;20537;-82
2022/12/15 04:09:50;;;;;;;24.00;12.70;;;8.40;46.70;;;;;;5052735;28;20461;-77
2022/12/15 04:12:18;;;;;;;26.83;13.30;;;8.40;46.80;;;;;;5049942;28;20450;-76
2022/12/15 04:14:46;;;;;;;27.47;14.13;;;8.40;46.70;;;;;;5050613;28;20452;-77
2022/12/15 04:17:16;;;;;;;23.07;12.63;;;8.40;46.80;;;;;;5051210;28;20456;-77
2022/12/15 04:22:30;;;;;;;22.67;12.43;;;8.40;46.90;;;;;;5045777;28;20455;-77
2022/12/15 05:34:08;;;;;;;19.03;10.33;;;8.10;47.00;;;;;;5048198;28;20455;-77
2022/12/15 05:36:36;;;;;;;17.43;9.80;;;8.10;46.90;;;;;;5049096;28;20456;-76
2022/12/15 05:39:04;;;;;;;16.90;10.13;;;8.10;46.90;;;;;;5048019;28;20467;-77
2022/12/15 05:41:32;;;;;;;19.63;11.13;;;8.10;46.80;;;;;;5049278;28;20450;-77
2022/12/15 05:44:00;;;;;;;21.63;10.80;;;8.20;46.90;;;;;;5045834;28;20458;-76
2022/12/15 05:46:29;;;;;;;17.50;10.20;;;8.10;46.80;;;;;;5049196;28;20465;-77
2022/12/15 05:48:57;;;;;;;18.13;10.30;;;8.10;46.90;;;;;;5046067;28;20474;-77
2022/12/15 05:51:25;;;;;;;18.80;11.03;;;8.10;47.00;;;;;;5045845;28;20844;-77
2022/12/15 05:53:53;;;;;;;18.50;10.67;;;8.10;47.00;;;;;;5048157;28;20524;-76
2022/12/15 05:56:21;;;;;;;21.30;10.70;;;8.10;47.00;;;;;;5048389;28;20446;-77
2022/12/15 05:58:49;;;;;;;20.57;10.90;;;8.10;46.90;;;;;;5045891;28;20473;-77
2022/12/15 06:01:18;;;;;;;20.83;10.33;;;8.10;46.90;;;;;;5046211;28;20458;-77
2022/12/15 06:03:47;;;;;;;16.67;9.50;;;8.10;46.80;;;;;;5047825;28;20446;-77
2022/12/15 06:06:15;;;;;;;17.67;9.80;;;8.10;46.80;;;;;;5041253;28;20454;-77
2022/12/15 06:08:43;;;;;;;15.80;9.37;;;8.10;46.80;;;;;;5047514;28;20479;-76
2022/12/15 06:11:11;;;;;;;16.10;9.70;;;8.10;46.70;;;;;;5046730;28;20455;-76
2022/12/15 06:13:39;;;;;;;16.30;9.80;;;8.10;46.80;;;;;;5048260;28;20458;-76
2022/12/15 06:16:09;;;;;;;16.03;9.60;;;8.10;46.80;;;;;;5047798;28;20451;-76
2022/12/15 06:18:38;;;;;;;16.43;9.90;;;8.10;46.90;;;;;;5044843;28;20471;-77
2022/12/15 06:21:08;;;;;;;19.23;9.77;;;8.10;47.00;;;;;;5047247;28;20457;-76
2022/12/15 06:23:36;;;;;;;17.67;10.10;;;8.10;46.90;;;;;;5045529;28;20451;-76
2022/12/15 06:26:08;;;;;;;13.83;8.60;;;8.10;46.90;;;;;;5045828;28;20459;-76
2022/12/15 06:28:36;;;;;;;16.97;10.33;;;8.10;46.80;;;;;;5052007;28;20478;-77
2022/12/15 06:31:05;;;;;;;19.53;10.00;;;8.10;46.80;;;;;;5051612;28;20454;-76
2022/12/15 06:33:33;;;;;;;16.30;9.40;;;8.10;46.80;;;;;;5050001;28;20446;-76
2022/12/15 06:36:03;;;;;;;18.07;9.23;;;8.10;46.80;;;;;;5049746;28;20459;-76
2022/12/15 06:38:33;;;;;;;17.67;9.63;;;8.10;46.90;;;;;;5049038;28;20470;-76
2022/12/15 06:41:01;;;;;;;16.73;9.40;;;8.10;46.90;;;;;;5051100;28;20454;-76
2022/12/15 06:43:30;;;;;;;17.13;9.40;;;8.10;46.90;;;;;;5050562;28;20442;-76
2022/12/15 06:45:58;;;;;;;18.40;10.03;;;8.00;46.80;;;;;;5049828;28;20492;-77
2022/12/15 06:48:27;;;;;;;16.70;9.23;;;8.00;46.80;;;;;;5050823;28;20474;-76
2022/12/15 06:50:56;;;;;;;16.37;9.70;;;8.10;46.80;;;;;;5052130;28;20458;-77
2022/12/15 06:53:24;;;;;;;13.70;8.83;;;8.10;46.90;;;;;;5052400;28;20556;-76
2022/12/15 06:55:59;;;;;;;17.83;9.60;;;8.10;46.80;;;;;;5049442;28;20472;-77
2022/12/15 06:58:27;;;;;;;15.60;9.70;;;8.10;46.90;;;;;;5051413;28;20473;-76
2022/12/15 07:00:57;;;;;;;14.77;8.97;;;8.00;46.80;;;;;;5049839;28;20450;-78
2022/12/15 07:03:26;;;;;;;14.53;9.07;;;8.10;46.80;;;;;;5051306;28;20545;-76
2022/12/15 07:06:02;;;;;;;16.80;10.03;;;8.00;46.80;;;;;;5048515;28;21022;-78
2022/12/15 07:08:31;;;;;;;14.23;8.90;;;8.00;47.40;;;;;;5051034;28;20478;-76
2022/12/15 07:11:11;;;;;;;15.90;9.20;;;8.00;46.80;;;;;;5049481;28;20461;-76
2022/12/15 07:13:39;;;;;;;14.40;9.23;;;8.00;46.90;;;;;;5050488;28;20450;-77
2022/12/15 07:16:08;;;;;;;15.30;8.80;;;8.00;46.80;;;;;;5047302;28;20457;-77
2022/12/15 07:18:36;;;;;;;14.23;9.47;;;8.00;46.80;;;;;;5050507;28;20494;-77
2022/12/15 07:21:05;;;;;;;14.27;8.57;;;8.10;46.80;;;;;;5048952;28;20450;-76
2022/12/15 07:23:34;;;;;;;14.93;9.00;;;8.00;46.90;;;;;;5048124;28;20445;-77
2022/12/15 07:26:25;;;;;;;17.00;9.37;;;8.00;46.80;;;;;;5049316;28;20455;-76
2022/12/15 07:28:53;;;;;;;16.10;9.40;;;8.00;46.90;;;;;;5049055;28;20494;-77
2022/12/15 07:31:22;;;;;;;17.07;9.23;;;8.00;47.10;;;;;;5048310;28;20463;-76
2022/12/15 07:33:53;;;;;;;14.10;8.87;;;8.00;47.00;;;;;;5050688;28;20451;-77
2022/12/15 07:36:22;;;;;;;13.70;8.80;;;8.00;47.20;;;;;;5050205;28;20463;-77
2022/12/15 07:38:50;;;;;;;13.77;8.70;;;8.10;47.20;;;;;;5049416;28;20482;-76
2022/12/15 07:41:19;;;;;;;17.10;9.83;;;8.10;47.20;;;;;;5047917;28;20501;-77
2022/12/15 07:43:50;;;;;;;15.13;9.00;;;8.10;47.30;;;;;;5050190;28;20552;-77
2022/12/15 07:46:18;;;;;;;16.03;9.30;;;8.10;47.30;;;;;;5048878;28;20463;-77
2022/12/15 07:48:47;;;;;;;14.10;9.07;;;8.10;47.40;;;;;;5048803;28;20478;-76
2022/12/15 07:51:19;;;;;;;16.43;9.90;;;8.10;47.40;;;;;;5045699;28;20474;-77
2022/12/15 07:53:49;;;;;;;13.90;8.40;;;8.20;47.50;;;;;;5049229;28;20450;-77
2022/12/15 07:56:18;;;;;;;15.93;8.73;;;8.20;47.50;;;;;;5047376;28;20496;-76
2022/12/15 07:58:46;;;;;;;13.77;8.73;;;8.20;47.50;;;;;;5051483;28;20569;-76
2022/12/15 08:01:18;;;;;;;14.93;9.00;;;8.20;47.60;;;;;;5044910;28;20451;-77
2022/12/15 08:03:48;;;;;;;14.30;9.13;;;8.30;47.60;;;;;;5047904;28;20542;-77
2022/12/15 08:06:17;;;;;;;15.07;9.03;;;8.30;47.50;;;;;;5044839;28;20448;-77
2022/12/15 08:08:45;;;;;;;19.00;9.10;;;8.30;47.60;;;;;;5041203;28;20470;-76
2022/12/15 08:11:18;;;;;;;16.43;9.63;;;8.30;47.80;;;;;;5040691;28;20474;-76
2022/12/15 08:13:48;;;;;;;13.50;8.80;;;8.30;47.70;;;;;;5044844;28;20455;-77
2022/12/15 08:16:33;;;;;;;13.63;8.80;;;8.40;47.80;;;;;;5046474;28;20469;-76
2022/12/15 08:19:02;;;;;;;16.40;9.07;;;8.40;47.90;;;;;;5039815;28;20475;-76
2022/12/15 08:21:31;;;;;;;16.63;9.87;;;8.40;47.90;;;;;;5046486;28;20469;-77
2022/12/15 08:24:04;;;;;;;13.40;8.53;;;8.50;48.00;;;;;;5052705;28;20465;-77
2022/12/15 08:26:34;;;;;;;11.50;8.07;;;8.50;48.10;;;;;;5044898;28;20460;-77
2022/12/15 08:29:03;;;;;;;11.47;7.73;;;8.50;48.10;;;;;;5044509;28;20498;-78
2022/12/15 08:31:53;;;;;;;15.60;8.87;;;8.60;48.30;;;;;;5048103;28;20516;-77
2022/12/15 08:34:21;;;;;;;15.43;8.43;;;8.60;48.30;;;;;;5050000;28;20450;-78
2022/12/15 08:36:50;;;;;;;13.67;8.40;;;8.60;48.80;;;;;;5050774;28;20461;-78
2022/12/15 08:39:19;;;;;;;15.70;8.60;;;8.70;48.30;;;;;;5047850;28;20470;-77
2022/12/15 08:41:47;;;;;;;12.70;8.60;;;8.70;48.40;;;;;;5051184;28;20450;-77
2022/12/15 08:44:16;;;;;;;12.70;8.03;;;8.70;48.40;;;;;;5041784;28;20464;-76
2022/12/15 08:46:45;;;;;;;13.97;8.77;;;8.80;48.50;;;;;;5048007;28;20515;-75
2022/12/15 08:49:14;;;;;;;13.30;8.60;;;8.80;48.40;;;;;;5045331;28;20479;-75
2022/12/15 08:51:48;;;;;;;18.50;7.90;;;8.90;48.40;;;;;;5043278;28;20475;-75
2022/12/15 08:54:18;;;;;;;14.37;9.37;;;8.90;48.40;;;;;;5049140;28;20461;-75
2022/12/15 08:56:46;;;;;;;14.27;8.80;;;8.90;48.40;;;;;;5047262;28;20459;-76
2022/12/15 08:59:17;;;;;;;15.50;9.50;;;8.90;48.20;;;;;;5046431;28;20470;-76
2022/12/15 09:01:46;;;;;;;14.40;8.90;;;9.00;48.20;;;;;;5046733;28;20450;-75
2022/12/15 09:04:17;;;;;;;14.50;9.40;;;9.00;48.10;;;;;;5044928;28;20451;-76
2022/12/15 09:06:45;;;;;;;15.23;9.40;;;9.00;48.00;;;;;;5046034;28;20447;-76
2022/12/15 09:09:20;;;;;;;17.83;9.57;;;9.10;48.20;;;;;;5043312;28;20546;-78
2022/12/15 09:11:48;;;;;;;16.57;9.30;;;9.20;48.30;;;;;;5044539;28;20474;-76
2022/12/15 09:14:16;;;;;;;15.03;9.50;;;9.40;48.40;;;;;;5044481;28;20452;-78
2022/12/15 09:16:44;;;;;;;12.60;8.53;;;9.50;48.60;;;;;;5049632;28;20457;-77
2022/12/15 09:19:20;;;;;;;15.10;8.90;;;9.50;48.50;;;;;;5044991;28;20475;-78
2022/12/15 09:21:51;;;;;;;13.30;8.77;;;9.60;48.50;;;;;;5048496;28;20446;-77
2022/12/15 09:24:20;;;;;;;13.77;8.63;;;9.60;48.50;;;;;;5040985;28;20455;-77
2022/12/15 09:27:02;;;;;;;12.37;8.40;;;9.60;48.60;;;;;;5042260;28;20442;-77
2022/12/15 09:29:31;;;;;;;12.83;8.70;;;9.60;48.60;;;;;;5046457;28;20463;-79
2022/12/15 09:32:00;;;;;;;17.00;9.40;;;9.60;48.80;;;;;;5044712;28;20479;-77
2022/12/15 09:34:33;;;;;;;15.37;9.30;;;9.70;48.90;;;;;;5045356;28;20441;-77
2022/12/15 09:37:02;;;;;;;12.87;8.07;;;9.80;48.90;;;;;;5049991;28;20457;-77
2022/12/15 09:39:31;;;;;;;14.10;8.70;;;9.80;49.00;;;;;;5048979;28;20534;-77
2022/12/15 09:42:01;;;;;;;16.87;9.10;;;9.90;49.20;;;;;;5053570;28;20449;-78
2022/12/15 09:44:30;;;;;;;14.27;8.40;;;10.00;48.40;;;;;;5047828;28;20453;-79
2022/12/15 09:47:05;;;;;;;12.13;8.27;;;10.10;48.30;;;;;;5052098;28;20528;-77
2022/12/15 09:49:55;;;;;;;12.13;8.33;;;10.20;48.60;;;;;;5046692;28;20488;-77
2022/12/15 09:52:26;;;;;;;14.90;8.40;;;10.40;48.70;;;;;;5046024;28;20471;-78
2022/12/15 09:54:55;;;;;;;12.83;8.53;;;10.40;48.50;;;;;;5044413;28;20462;-79
2022/12/15 09:57:30;;;;;;;15.20;8.80;;;10.60;48.80;;;;;;5052075;28;20442;-78
2022/12/15 10:00:20;;;;;;;13.43;8.80;;;10.70;49.10;;;;;;5042228;28;20485;-79
2022/12/15 10:03:15;;;;;;;13.63;7.93;;;11.00;49.30;;;;;;5053553;28;20446;-77
2022/12/15 10:05:53;;;;;;;14.50;8.00;;;11.30;49.30;;;;;;5049461;28;20458;-77
2022/12/15 10:08:44;;;;;;;12.93;8.33;;;11.50;49.20;;;;;;5048946;28;20848;-78
2022/12/15 10:11:18;;;;;;;16.13;8.33;;;11.80;49.00;;;;;;5052977;28;20466;-78
2022/12/15 10:13:53;;;;;;;11.57;7.90;;;12.00;48.70;;;;;;5052798;28;20506;-77
2022/12/15 10:16:34;;;;;;;11.63;7.97;;;12.10;48.70;;;;;;5046576;28;20447;-78
2022/12/15 10:19:09;;;;;;;13.90;7.77;;;12.20;48.90;;;;;;5046873;28;20467;-78
2022/12/15 10:21:40;;;;;;;11.40;8.27;;;12.50;49.20;;;;;;5052977;28;20462;-76
2022/12/15 10:24:18;;;;;;;13.53;8.47;;;12.70;49.20;;;;;;5053071;28;20446;-77
2022/12/15 10:27:22;;;;;;;10.73;7.60;;;12.90;49.20;;;;;;5049217;28;20439;-78
2022/12/15 10:29:53;;;;;;;14.57;8.87;;;13.10;49.20;;;;;;5053151;28;20522;-78
2022/12/15 10:32:28;;;;;;;14.83;9.70;;;13.30;49.30;;;;;;5046499;28;20470;-78
2022/12/15 10:34:59;;;;;;;15.00;9.03;;;13.50;49.30;;;;;;5044910;28;20533;-78
2022/12/15 10:37:33;;;;;;;18.40;10.30;;;13.70;49.40;;;;;;5049149;28;20541;-78
2022/12/15 10:40:02;;;;;;;15.10;9.67;;;14.00;49.50;;;;;;5051052;28;20526;-78
2022/12/15 10:42:31;;;;;;;18.83;10.57;;;14.20;49.60;;;;;;5045548;28;20521;-78
2022/12/15 10:45:01;;;;;;;18.60;10.13;;;14.40;49.50;;;;;;5050280;28;20447;-78
2022/12/15 10:47:31;;;;;;;18.00;10.87;;;14.60;49.60;;;;;;5053145;28;20515;-78
2022/12/15 10:50:17;;;;;;;16.57;10.37;;;14.90;49.60;;;;;;5052123;28;20518;-78
2022/12/15 10:52:53;;;;;;;19.00;10.33;;;15.10;49.50;;;;;;5044214;28;20475;-78
2022/12/15 10:55:36;;;;;;;17.13;10.70;;;15.30;49.40;;;;;;5053803;28;20455;-78
2022/12/15 10:58:15;;;;;;;18.57;11.50;;;15.60;49.60;;;;;;5042257;28;20463;-78
2022/12/15 11:00:45;;;;;;;17.60;10.67;;;15.80;49.50;;;;;;5049619;28;20454;-79
2022/12/15 11:03:22;;;;;;;16.70;10.73;;;16.00;49.60;;;;;;5045240;28;20442;-77
2022/12/15 11:05:52;;;;;;;16.90;11.37;;;16.20;49.40;;;;;;5049081;28;20451;-78
2022/12/15 11:08:23;;;;;;;17.03;10.97;;;16.50;49.50;;;;;;5038839;28;20557;-78
2022/12/15 11:13:39;;;;;;;18.47;10.80;;;17.00;49.20;;;;;;5044363;28;20468;-78
2022/12/15 11:16:14;;;;;;;16.10;10.93;;;17.20;48.90;;;;;;5054525;28;20470;-79
2022/12/15 11:18:44;;;;;;;18.43;11.40;;;17.40;48.70;;;;;;5046883;28;20477;-78
2022/12/15 11:21:20;;;;;;;18.83;10.80;;;17.40;48.40;;;;;;5054574;28;20445;-78
2022/12/15 11:23:58;;;;;;;17.30;11.37;;;17.60;48.60;;;;;;5053956;28;20449;-79
2022/12/15 11:26:40;;;;;;;17.20;10.40;;;17.80;48.50;;;;;;5054350;28;20507;-78
2022/12/15 11:29:13;;;;;;;18.07;10.83;;;18.00;48.30;;;;;;5055429;28;20477;-78
2022/12/15 11:31:43;;;;;;;18.63;10.90;;;18.10;48.10;;;;;;5054824;28;20463;-77
2022/12/15 11:34:12;;;;;;;16.40;10.23;;;18.30;47.90;;;;;;5054209;28;20538;-78
2022/12/15 11:37:03;;;;;;;15.30;10.33;;;18.50;47.70;;;;;;5053900;28;20443;-77
2022/12/15 11:39:42;;;;;;;15.60;10.13;;;18.70;47.30;;;;;;5054522;28;20467;-78
2022/12/15 11:42:12;;;;;;;13.20;10.10;;;18.90;47.30;;;;;;5054144;28;20453;-78
2022/12/15 11:44:44;;;;;;;16.83;9.83;;;19.00;47.10;;;;;;5053359;28;20457;-78
2022/12/15 11:47:17;;;;;;;14.10;10.10;;;19.20;47.10;;;;;;5054210;28;20450;-78
2022/12/15 11:50:21;;;;;;;12.03;8.97;;;19.30;46.90;;;;;;5053807;28;20450;-77
2022/12/15 11:53:06;;;;;;;14.97;10.03;;;19.50;46.50;;;;;;5053749;28;20466;-78
2022/12/15 11:55:40;;;;;;;15.40;9.70;;;19.70;46.60;;;;;;5053765;28;20458;-77
2022/12/15 11:58:23;;;;;;;14.90;9.80;;;19.90;46.40;;;;;;5053972;28;20498;-77
2022/12/15 12:00:55;;;;;;;16.67;10.30;;;20.00;46.20;;;;;;5053600;28;20453;-76
2022/12/15 12:03:27;;;;;;;15.30;10.00;;;20.20;46.20;;;;;;5053268;28;20443;-77
2022/12/15 12:06:09;;;;;;;15.60;10.60;;;20.30;46.10;;;;;;5053282;28;20477;-77
2022/12/15 12:08:46;;;;;;;14.10;10.13;;;20.50;45.80;;;;;;5053158;28;20980;-77
2022/12/15 12:11:21;;;;;;;15.40;9.10;;;20.60;45.80;;;;;;5053114;28;20442;-78
2022/12/15 12:13:56;;;;;;;14.33;10.00;;;20.80;45.70;;;;;;5053226;28;20447;-77
2022/12/15 12:16:31;;;;;;;15.00;9.97;;;20.90;45.50;;;;;;5053008;28;20496;-77
2022/12/15 12:19:01;;;;;;;15.27;10.47;;;21.00;45.40;;;;;;5053394;28;20470;-77
2022/12/15 12:21:31;;;;;;;14.13;9.63;;;21.10;45.20;;;;;;5053190;28;20447;-77
2022/12/15 12:24:01;;;;;;;14.97;9.33;;;21.20;45.00;;;;;;5052969;28;20529;-77
2022/12/15 12:26:35;;;;;;;11.50;8.27;;;21.30;44.80;;;;;;5052895;28;20447;-77
2022/12/15 12:29:06;;;;;;;12.40;9.33;;;21.40;44.60;;;;;;5053053;28;20466;-77
2022/12/15 12:31:42;;;;;;;14.17;10.50;;;21.50;44.40;;;;;;5052949;28;20446;-77
2022/12/15 12:34:12;;;;;;;11.80;9.30;;;21.60;44.30;;;;;;5053086;28;20533;-77
2022/12/15 12:36:42;;;;;;;12.70;8.73;;;21.70;44.20;;;;;;5053211;28;20458;-78
2022/12/15 12:39:17;;;;;;;12.17;9.00;;;21.70;44.20;;;;;;5052860;28;20469;-78
2022/12/15 12:41:50;;;;;;;11.80;8.47;;;21.80;44.10;;;;;;5052314;28;20446;-77
2022/12/15 12:44:24;;;;;;;11.93;8.47;;;21.80;44.00;;;;;;5052940;28;20443;-78
2022/12/15 12:46:54;;;;;;;10.17;7.70;;;21.90;43.90;;;;;;5052673;28;20450;-77
2022/12/15 12:49:25;;;;;;;14.23;8.90;;;21.90;43.90;;;;;;5052636;28;20466;-77
2022/12/15 12:51:54;;;;;;;9.47;7.87;;;21.90;43.90;;;;;;5052690;28;20471;-77
2022/12/15 12:54:40;;;;;;;11.80;8.60;;;21.80;43.70;;;;;;5053321;28;20443;-78
2022/12/15 13:10:24;;;;;;;10.07;7.20;;;21.90;43.80;;;;;;5093250;27;1759225;-79
2022/12/15 13:12:57;;;;;;;12.70;7.80;;;22.20;43.30;;;;;;5131385;28;20270;-78
2022/12/15 13:15:37;;;;;;;9.47;7.47;;;22.20;43.10;;;;;;5130569;28;20514;-78
2022/12/15 13:18:09;;;;;;;9.53;7.63;;;22.20;43.00;;;;;;5122103;28;20468;-78
2022/12/15 13:20:37;;;;;;;9.90;7.27;;;22.10;42.90;;;;;;5109164;28;20451;-79
2022/12/15 13:23:36;;;;;;;11.77;8.40;;;22.10;42.80;;;;;;5109516;28;20500;-79
2022/12/15 13:26:15;;;;;;;11.03;7.80;;;22.10;42.70;;;;;;5104176;28;20460;-77
2022/12/15 13:28:45;;;;;;;10.23;7.17;;;21.90;42.70;;;;;;5108967;28;20464;-78
2022/12/15 13:31:27;;;;;;;8.47;7.10;;;21.70;42.60;;;;;;5109042;28;20463;-77
2022/12/15 13:34:27;;;;;;;10.57;7.27;;;21.50;42.70;;;;;;5108858;28;20484;-77
2022/12/15 13:37:01;;;;;;;10.37;7.03;;;21.20;42.80;;;;;;5109008;28;20420;-76
2022/12/15 13:39:56;;;;;;;11.07;6.83;;;20.90;43.00;;;;;;5108427;28;20475;-77
2022/12/15 13:42:36;;;;;;;10.53;7.87;;;20.70;43.80;;;;;;5108976;28;20538;-77
2022/12/15 13:45:42;;;;;;;12.13;7.60;;;20.40;43.40;;;;;;5108875;28;20504;-77
2022/12/15 13:48:27;;;;;;;8.90;7.03;;;20.20;43.50;;;;;;5110839;28;20486;-79
2022/12/15 13:51:01;;;;;;;11.13;7.30;;;20.00;43.60;;;;;;5111342;28;20467;-78
2022/12/15 13:53:32;;;;;;;10.00;7.30;;;19.80;43.80;;;;;;5110691;28;20444;-78
2022/12/15 13:56:05;;;;;;;11.80;7.17;;;19.60;44.10;;;;;;5110719;28;20440;-79
2022/12/15 13:58:39;;;;;;;10.53;7.10;;;19.40;44.10;;;;;;5110218;28;20977;-78
2022/12/15 14:01:19;;;;;;;9.80;7.10;;;19.20;44.20;;;;;;5106544;28;20875;-78
2022/12/15 14:04:04;;;;;;;13.37;7.27;;;19.10;44.30;;;;;;5103637;28;20451;-79
2022/12/15 14:06:35;;;;;;;9.30;7.07;;;18.90;44.30;;;;;;5106994;28;20440;-79
2022/12/15 14:09:05;;;;;;;10.13;7.27;;;18.80;44.40;;;;;;5110047;28;20467;-79
2022/12/15 14:11:34;;;;;;;9.93;7.70;;;18.70;44.60;;;;;;5095636;28;20449;-79
2022/12/15 14:14:23;;;;;;;11.10;7.20;;;18.50;44.60;;;;;;5095352;28;20468;-79
2022/12/15 14:16:55;;;;;;;10.77;7.17;;;18.40;44.60;;;;;;5096752;28;20463;-78
2022/12/15 14:19:25;;;;;;;14.67;7.77;;;18.30;44.70;;;;;;5085270;28;20468;-78
2022/12/15 14:21:54;;;;;;;10.53;6.40;;;18.10;44.70;;;;;;5096204;28;20467;-78
2022/12/15 14:24:23;;;;;;;8.73;6.90;;;17.90;44.80;;;;;;5082119;28;20440;-78
2022/12/15 14:27:08;;;;;;;10.93;7.50;;;17.80;44.80;;;;;;5095472;28;20440;-79
2022/12/15 14:29:38;;;;;;;13.37;7.70;;;17.60;44.90;;;;;;5095941;28;20456;-78
2022/12/15 14:32:06;;;;;;;10.90;7.70;;;17.50;44.90;;;;;;5095525;28;20433;-78
2022/12/15 14:34:35;;;;;;;11.37;7.50;;;17.30;44.90;;;;;;5095607;28;20444;-78
2022/12/15 14:37:06;;;;;;;9.40;6.70;;;17.20;44.90;;;;;;5093034;28;20440;-79
2022/12/15 14:39:36;;;;;;;8.90;6.83;;;17.10;44.90;;;;;;5095532;28;20464;-78
2022/12/15 14:42:04;;;;;;;11.70;7.97;;;17.00;45.00;;;;;;5095225;28;20440;-78
2022/12/15 14:44:34;;;;;;;12.60;7.80;;;16.80;45.00;;;;;;5095892;28;20445;-78
2022/12/15 14:47:08;;;;;;;10.00;7.00;;;16.70;45.10;;;;;;5094963;28;20440;-79
2022/12/15 14:49:39;;;;;;;11.70;7.40;;;16.60;45.10;;;;;;5094931;28;20452;-78
2022/12/15 14:52:20;;;;;;;11.27;8.17;;;16.50;45.10;;;;;;5092228;28;20445;-78
2022/12/15 14:54:52;;;;;;;12.50;7.03;;;16.40;45.20;;;;;;5096141;28;20452;-78
2022/12/15 14:57:24;;;;;;;10.60;7.50;;;16.30;45.30;;;;;;5088678;28;20544;-79
2022/12/15 14:59:53;;;;;;;10.60;7.90;;;16.10;45.20;;;;;;5095948;28;20479;-79
2022/12/15 15:02:25;;;;;;;10.63;7.20;;;16.00;45.20;;;;;;5095891;28;20455;-79
2022/12/15 15:05:01;;;;;;;8.90;6.30;;;15.90;45.30;;;;;;5086687;28;20456;-78
2022/12/15 15:07:30;;;;;;;9.97;7.10;;;15.80;45.40;;;;;;5094530;28;20449;-78
2022/12/15 15:09:58;;;;;;;11.57;7.00;;;15.70;45.50;;;;;;5092364;28;20452;-78
2022/12/15 15:12:28;;;;;;;9.70;7.40;;;15.60;45.50;;;;;;5092898;28;20448;-79
2022/12/15 15:15:02;;;;;;;12.00;7.73;;;15.50;45.50;;;;;;5090171;28;20440;-78
2022/12/15 15:17:35;;;;;;;9.63;7.00;;;15.40;45.40;;;;;;5095969;28;20444;-79
2022/12/15 15:20:04;;;;;;;10.33;7.20;;;15.30;45.60;;;;;;5096228;28;20495;-78
2022/12/15 15:22:38;;;;;;;11.97;7.83;;;15.30;45.70;;;;;;5095431;28;20449;-78
2022/12/15 15:25:25;;;;;;;10.67;7.70;;;15.20;45.70;;;;;;5094246;28;20436;-78
2022/12/15 15:28:01;;;;;;;12.10;7.10;;;15.00;45.60;;;;;;5092421;28;20467;-78
2022/12/15 15:30:30;;;;;;;11.17;7.57;;;15.00;45.70;;;;;;5094486;28;20452;-78
2022/12/15 15:33:01;;;;;;;9.97;7.27;;;14.90;45.80;;;;;;5095855;28;20523;-79
2022/12/15 15:35:30;;;;;;;11.40;7.53;;;14.80;45.80;;;;;;5096316;28;20444;-80
2022/12/15 15:38:01;;;;;;;13.13;8.07;;;14.70;45.80;;;;;;5093951;28;20471;-78
2022/12/15 15:40:29;;;;;;;16.13;9.30;;;14.70;45.80;;;;;;5095221;28;20487;-78
2022/12/15 15:42:57;;;;;;;13.20;8.80;;;14.60;45.80;;;;;;5093057;28;20447;-78